Johnsville, California
Current Conditions -  °F | °C
As of 6:52 PM on Monday 26 Jan 2015 (Local Time) from KBLU Reporting Station
Clear Clear  
Wind Chill: 49°   Ceiling: Unl
Heat Index: 49°   Visibility: 10mi
Dew Point: 29°   Wind: 3mph
Humidity: 46%   Direction: 110°ESE
Pressure: 30.11"   Gusts: NA
Location:  39.7722°N, 120.711°W
Report Text: KBLU 270252Z AUTO 11003KT 10SM CLR 09/M02 A3011 RMK AO2 SLP150 T00941017 50005
Loading
Personal Weather Stations






























Interactive Weather Map New forecast layout! Learn more

10-Day Weather Forecast

Advertisements
Track Severe Weather on mobile